sensor_id;sensor_type;location;lat;lon;timestamp;temperature;humidity
76936;DHT22;65881;52.438;16.744;2024-03-25T00:02:00;4.30;99.90
76936;DHT22;65881;52.438;16.744;2024-03-25T00:04:26;4.30;99.90
76936;DHT22;65881;52.438;16.744;2024-03-25T00:06:51;4.20;99.90
76936;DHT22;65881;52.438;16.744;2024-03-25T00:09:18;4.20;99.90
76936;DHT22;65881;52.438;16.744;2024-03-25T00:11:43;4.20;99.90
76936;DHT22;65881;52.438;16.744;2024-03-25T00:14:09;4.20;99.90
76936;DHT22;65881;52.438;16.744;2024-03-25T00:16:35;4.20;99.90
76936;DHT22;65881;52.438;16.744;2024-03-25T00:19:01;4.20;99.90
76936;DHT22;65881;52.438;16.744;2024-03-25T00:21:26;4.30;99.90
76936;DHT22;65881;52.438;16.744;2024-03-25T00:23:52;4.30;99.90
76936;DHT22;65881;52.438;16.744;2024-03-25T00:26:18;4.30;99.90
76936;DHT22;65881;52.438;16.744;2024-03-25T00:28:43;4.30;99.90
76936;DHT22;65881;52.438;16.744;2024-03-25T00:31:09;4.30;99.90
76936;DHT22;65881;52.438;16.744;2024-03-25T00:33:35;4.30;99.90
76936;DHT22;65881;52.438;16.744;2024-03-25T00:36:00;4.30;99.90
76936;DHT22;65881;52.438;16.744;2024-03-25T00:38:26;4.30;99.90
76936;DHT22;65881;52.438;16.744;2024-03-25T00:40:52;4.30;99.90
76936;DHT22;65881;52.438;16.744;2024-03-25T00:43:18;4.20;99.90
76936;DHT22;65881;52.438;16.744;2024-03-25T00:45:43;4.20;99.90
76936;DHT22;65881;52.438;16.744;2024-03-25T00:48:09;4.20;99.90
76936;DHT22;65881;52.438;16.744;2024-03-25T00:50:35;4.20;99.90
76936;DHT22;65881;52.438;16.744;2024-03-25T00:53:00;4.20;99.90
76936;DHT22;65881;52.438;16.744;2024-03-25T00:55:26;4.20;99.90
76936;DHT22;65881;52.438;16.744;2024-03-25T00:57:51;4.20;99.90
76936;DHT22;65881;52.438;16.744;2024-03-25T01:00:17;4.20;99.90
76936;DHT22;65881;52.438;16.744;2024-03-25T01:02:43;4.20;99.90
76936;DHT22;65881;52.438;16.744;2024-03-25T01:05:09;4.20;99.90
76936;DHT22;65881;52.438;16.744;2024-03-25T01:07:34;4.20;99.90
76936;DHT22;65881;52.438;16.744;2024-03-25T01:10:00;4.20;99.90
76936;DHT22;65881;52.438;16.744;2024-03-25T01:12:26;4.20;99.90
76936;DHT22;65881;52.438;16.744;2024-03-25T01:14:52;4.20;99.90
76936;DHT22;65881;52.438;16.744;2024-03-25T01:17:17;4.20;99.90
76936;DHT22;65881;52.438;16.744;2024-03-25T01:19:45;4.20;99.90
76936;DHT22;65881;52.438;16.744;2024-03-25T01:22:11;4.20;99.90
76936;DHT22;65881;52.438;16.744;2024-03-25T01:24:36;4.20;99.90
76936;DHT22;65881;52.438;16.744;2024-03-25T01:27:02;4.20;99.90
76936;DHT22;65881;52.438;16.744;2024-03-25T01:29:28;4.20;99.90
76936;DHT22;65881;52.438;16.744;2024-03-25T01:31:53;4.20;99.90
76936;DHT22;65881;52.438;16.744;2024-03-25T01:34:19;4.20;99.90
76936;DHT22;65881;52.438;16.744;2024-03-25T01:36:45;4.30;99.90
76936;DHT22;65881;52.438;16.744;2024-03-25T01:39:10;4.30;99.90
76936;DHT22;65881;52.438;16.744;2024-03-25T01:41:36;4.30;99.90
76936;DHT22;65881;52.438;16.744;2024-03-25T01:44:01;4.30;99.90
76936;DHT22;65881;52.438;16.744;2024-03-25T01:46:27;4.20;99.90
76936;DHT22;65881;52.438;16.744;2024-03-25T01:48:53;4.20;99.90
76936;DHT22;65881;52.438;16.744;2024-03-25T01:51:21;4.20;99.90
76936;DHT22;65881;52.438;16.744;2024-03-25T01:53:49;4.20;99.90
76936;DHT22;65881;52.438;16.744;2024-03-25T01:56:15;4.20;99.90
76936;DHT22;65881;52.438;16.744;2024-03-25T01:58:42;4.20;99.90
76936;DHT22;65881;52.438;16.744;2024-03-25T02:01:08;4.20;99.90
76936;DHT22;65881;52.438;16.744;2024-03-25T02:03:36;4.20;99.90
76936;DHT22;65881;52.438;16.744;2024-03-25T02:06:06;4.20;99.90
76936;DHT22;65881;52.438;16.744;2024-03-25T02:08:34;4.20;99.90
76936;DHT22;65881;52.438;16.744;2024-03-25T02:11:00;4.20;99.90
76936;DHT22;65881;52.438;16.744;2024-03-25T02:13:26;4.20;99.90
76936;DHT22;65881;52.438;16.744;2024-03-25T02:15:52;4.20;99.90
76936;DHT22;65881;52.438;16.744;2024-03-25T02:18:18;4.10;99.90
76936;DHT22;65881;52.438;16.744;2024-03-25T02:20:44;4.10;99.90
76936;DHT22;65881;52.438;16.744;2024-03-25T02:23:11;4.10;99.90
76936;DHT22;65881;52.438;16.744;2024-03-25T02:25:38;4.10;99.90
76936;DHT22;65881;52.438;16.744;2024-03-25T02:28:04;4.10;99.90
76936;DHT22;65881;52.438;16.744;2024-03-25T02:30:30;4.00;99.90
76936;DHT22;65881;52.438;16.744;2024-03-25T02:32:55;4.00;99.90
76936;DHT22;65881;52.438;16.744;2024-03-25T02:35:22;4.00;99.90
76936;DHT22;65881;52.438;16.744;2024-03-25T02:37:50;3.90;99.90
76936;DHT22;65881;52.438;16.744;2024-03-25T02:40:17;3.90;99.90
76936;DHT22;65881;52.438;16.744;2024-03-25T02:42:43;3.90;99.90
76936;DHT22;65881;52.438;16.744;2024-03-25T02:45:09;3.90;99.90
76936;DHT22;65881;52.438;16.744;2024-03-25T02:47:35;3.90;99.90
76936;DHT22;65881;52.438;16.744;2024-03-25T02:50:03;3.80;99.90
76936;DHT22;65881;52.438;16.744;2024-03-25T02:52:28;3.80;99.90
76936;DHT22;65881;52.438;16.744;2024-03-25T02:54:54;3.90;99.90
76936;DHT22;65881;52.438;16.744;2024-03-25T02:57:20;3.70;99.90
76936;DHT22;65881;52.438;16.744;2024-03-25T02:59:46;3.80;99.90
76936;DHT22;65881;52.438;16.744;2024-03-25T03:02:12;3.80;99.90
76936;DHT22;65881;52.438;16.744;2024-03-25T03:04:38;3.80;99.90
76936;DHT22;65881;52.438;16.744;2024-03-25T03:07:04;3.70;99.90
76936;DHT22;65881;52.438;16.744;2024-03-25T03:09:29;3.70;99.90
76936;DHT22;65881;52.438;16.744;2024-03-25T03:11:55;3.70;99.90
76936;DHT22;65881;52.438;16.744;2024-03-25T03:14:20;3.70;99.90
76936;DHT22;65881;52.438;16.744;2024-03-25T03:16:46;3.60;99.90
76936;DHT22;65881;52.438;16.744;2024-03-25T03:19:11;3.60;99.90
76936;DHT22;65881;52.438;16.744;2024-03-25T03:21:37;3.60;99.90
76936;DHT22;65881;52.438;16.744;2024-03-25T03:24:06;3.60;99.90
76936;DHT22;65881;52.438;16.744;2024-03-25T03:26:31;3.60;99.90
76936;DHT22;65881;52.438;16.744;2024-03-25T03:28:57;3.60;99.90
76936;DHT22;65881;52.438;16.744;2024-03-25T03:31:29;3.60;99.90
76936;DHT22;65881;52.438;16.744;2024-03-25T03:33:54;3.60;99.90
76936;DHT22;65881;52.438;16.744;2024-03-25T03:36:21;3.60;99.90
76936;DHT22;65881;52.438;16.744;2024-03-25T03:38:49;3.60;99.90
76936;DHT22;65881;52.438;16.744;2024-03-25T03:41:15;3.60;99.90
76936;DHT22;65881;52.438;16.744;2024-03-25T03:43:40;3.70;99.90
76936;DHT22;65881;52.438;16.744;2024-03-25T03:46:06;3.60;99.90
76936;DHT22;65881;52.438;16.744;2024-03-25T03:48:31;3.60;99.90
76936;DHT22;65881;52.438;16.744;2024-03-25T03:50:57;3.60;99.90
76936;DHT22;65881;52.438;16.744;2024-03-25T03:53:23;3.60;99.90
76936;DHT22;65881;52.438;16.744;2024-03-25T03:55:55;3.60;99.90
76936;DHT22;65881;52.438;16.744;2024-03-25T03:58:22;3.60;99.90
76936;DHT22;65881;52.438;16.744;2024-03-25T04:00:48;3.60;99.90
76936;DHT22;65881;52.438;16.744;2024-03-25T04:03:14;3.60;99.90
76936;DHT22;65881;52.438;16.744;2024-03-25T04:05:39;3.60;99.90
76936;DHT22;65881;52.438;16.744;2024-03-25T04:08:05;3.60;99.90
76936;DHT22;65881;52.438;16.744;2024-03-25T04:10:31;3.60;99.90
76936;DHT22;65881;52.438;16.744;2024-03-25T04:12:57;3.60;99.90
76936;DHT22;65881;52.438;16.744;2024-03-25T04:15:22;3.60;99.90
76936;DHT22;65881;52.438;16.744;2024-03-25T04:17:48;3.60;99.90
76936;DHT22;65881;52.438;16.744;2024-03-25T04:20:17;3.60;99.90
76936;DHT22;65881;52.438;16.744;2024-03-25T04:22:46;3.60;99.90
76936;DHT22;65881;52.438;16.744;2024-03-25T04:25:12;3.60;99.90
76936;DHT22;65881;52.438;16.744;2024-03-25T04:27:46;3.50;99.90
76936;DHT22;65881;52.438;16.744;2024-03-25T04:30:12;3.50;99.90
76936;DHT22;65881;52.438;16.744;2024-03-25T04:32:38;3.50;99.90
76936;DHT22;65881;52.438;16.744;2024-03-25T04:35:05;3.50;99.90
76936;DHT22;65881;52.438;16.744;2024-03-25T04:37:32;3.40;99.90
76936;DHT22;65881;52.438;16.744;2024-03-25T04:39:57;3.50;99.90
76936;DHT22;65881;52.438;16.744;2024-03-25T04:42:23;3.40;99.90
76936;DHT22;65881;52.438;16.744;2024-03-25T04:44:51;3.40;99.90
76936;DHT22;65881;52.438;16.744;2024-03-25T04:47:17;3.40;99.90
76936;DHT22;65881;52.438;16.744;2024-03-25T04:49:45;3.50;99.90
76936;DHT22;65881;52.438;16.744;2024-03-25T04:52:12;3.40;99.90
76936;DHT22;65881;52.438;16.744;2024-03-25T04:54:42;3.40;99.90
76936;DHT22;65881;52.438;16.744;2024-03-25T04:57:08;3.30;99.90
76936;DHT22;65881;52.438;16.744;2024-03-25T04:59:34;3.30;99.90
76936;DHT22;65881;52.438;16.744;2024-03-25T05:01:59;3.30;99.90
76936;DHT22;65881;52.438;16.744;2024-03-25T05:04:25;3.40;99.90
76936;DHT22;65881;52.438;16.744;2024-03-25T05:06:51;3.50;99.90
76936;DHT22;65881;52.438;16.744;2024-03-25T05:09:17;3.50;99.90
76936;DHT22;65881;52.438;16.744;2024-03-25T05:11:43;3.50;99.90
76936;DHT22;65881;52.438;16.744;2024-03-25T05:14:08;3.40;99.90
76936;DHT22;65881;52.438;16.744;2024-03-25T05:16:34;3.50;99.90
76936;DHT22;65881;52.438;16.744;2024-03-25T05:18:59;3.50;99.90
76936;DHT22;65881;52.438;16.744;2024-03-25T05:21:25;3.40;99.90
76936;DHT22;65881;52.438;16.744;2024-03-25T05:23:50;3.40;99.90
76936;DHT22;65881;52.438;16.744;2024-03-25T05:26:16;3.40;99.90
76936;DHT22;65881;52.438;16.744;2024-03-25T05:28:41;3.30;99.90
76936;DHT22;65881;52.438;16.744;2024-03-25T05:31:08;3.40;99.90
76936;DHT22;65881;52.438;16.744;2024-03-25T05:33:34;3.50;99.90
76936;DHT22;65881;52.438;16.744;2024-03-25T05:36:00;3.50;99.90
76936;DHT22;65881;52.438;16.744;2024-03-25T05:38:26;3.50;99.90
76936;DHT22;65881;52.438;16.744;2024-03-25T05:40:52;3.50;99.90
76936;DHT22;65881;52.438;16.744;2024-03-25T05:43:18;3.50;99.90
76936;DHT22;65881;52.438;16.744;2024-03-25T05:45:54;3.50;99.90
76936;DHT22;65881;52.438;16.744;2024-03-25T05:48:24;3.50;99.90
76936;DHT22;65881;52.438;16.744;2024-03-25T05:51:06;3.50;99.90
76936;DHT22;65881;52.438;16.744;2024-03-25T05:53:33;3.50;99.90
76936;DHT22;65881;52.438;16.744;2024-03-25T05:55:58;3.50;99.90
76936;DHT22;65881;52.438;16.744;2024-03-25T05:58:27;3.50;99.90
76936;DHT22;65881;52.438;16.744;2024-03-25T06:00:53;3.50;99.90
76936;DHT22;65881;52.438;16.744;2024-03-25T06:03:19;3.50;99.90
76936;DHT22;65881;52.438;16.744;2024-03-25T06:05:46;3.60;99.90
76936;DHT22;65881;52.438;16.744;2024-03-25T06:08:13;3.60;99.90
76936;DHT22;65881;52.438;16.744;2024-03-25T06:10:46;3.70;99.90
76936;DHT22;65881;52.438;16.744;2024-03-25T06:13:11;3.70;99.90
76936;DHT22;65881;52.438;16.744;2024-03-25T06:15:37;3.70;99.90
76936;DHT22;65881;52.438;16.744;2024-03-25T06:18:03;3.90;99.90
76936;DHT22;65881;52.438;16.744;2024-03-25T06:20:29;3.90;99.90
76936;DHT22;65881;52.438;16.744;2024-03-25T06:22:54;3.90;99.90
76936;DHT22;65881;52.438;16.744;2024-03-25T06:25:20;3.90;99.90
76936;DHT22;65881;52.438;16.744;2024-03-25T06:27:45;4.00;99.90
76936;DHT22;65881;52.438;16.744;2024-03-25T06:30:11;4.00;99.90
76936;DHT22;65881;52.438;16.744;2024-03-25T06:32:55;4.10;99.90
76936;DHT22;65881;52.438;16.744;2024-03-25T06:35:42;4.10;99.90
76936;DHT22;65881;52.438;16.744;2024-03-25T06:38:08;4.20;99.90
76936;DHT22;65881;52.438;16.744;2024-03-25T06:40:34;4.20;99.90
76936;DHT22;65881;52.438;16.744;2024-03-25T06:42:59;4.30;99.90
76936;DHT22;65881;52.438;16.744;2024-03-25T06:45:25;4.30;99.90
76936;DHT22;65881;52.438;16.744;2024-03-25T06:47:51;4.30;99.90
76936;DHT22;65881;52.438;16.744;2024-03-25T06:50:16;4.30;99.90
76936;DHT22;65881;52.438;16.744;2024-03-25T06:52:42;4.40;99.90
76936;DHT22;65881;52.438;16.744;2024-03-25T06:55:07;4.40;99.90
76936;DHT22;65881;52.438;16.744;2024-03-25T06:57:33;4.40;99.90
76936;DHT22;65881;52.438;16.744;2024-03-25T06:59:59;4.40;99.90
76936;DHT22;65881;52.438;16.744;2024-03-25T07:02:24;4.40;99.90
76936;DHT22;65881;52.438;16.744;2024-03-25T07:04:50;4.40;99.90
76936;DHT22;65881;52.438;16.744;2024-03-25T07:07:15;4.40;99.90
76936;DHT22;65881;52.438;16.744;2024-03-25T07:09:41;4.40;99.90
76936;DHT22;65881;52.438;16.744;2024-03-25T07:12:07;4.40;99.90
76936;DHT22;65881;52.438;16.744;2024-03-25T07:14:32;4.40;99.90
76936;DHT22;65881;52.438;16.744;2024-03-25T07:16:58;4.50;99.90
76936;DHT22;65881;52.438;16.744;2024-03-25T07:19:24;4.50;99.90
76936;DHT22;65881;52.438;16.744;2024-03-25T07:21:49;4.50;99.90
76936;DHT22;65881;52.438;16.744;2024-03-25T07:24:15;4.50;99.90
76936;DHT22;65881;52.438;16.744;2024-03-25T07:26:41;4.50;99.90
76936;DHT22;65881;52.438;16.744;2024-03-25T07:29:06;4.60;99.90
76936;DHT22;65881;52.438;16.744;2024-03-25T07:31:32;4.60;99.90
76936;DHT22;65881;52.438;16.744;2024-03-25T07:33:58;4.70;99.90
76936;DHT22;65881;52.438;16.744;2024-03-25T07:36:24;4.70;99.90
76936;DHT22;65881;52.438;16.744;2024-03-25T07:38:49;4.70;99.90
76936;DHT22;65881;52.438;16.744;2024-03-25T07:41:15;4.70;99.90
76936;DHT22;65881;52.438;16.744;2024-03-25T07:43:40;4.80;99.90
76936;DHT22;65881;52.438;16.744;2024-03-25T07:46:06;4.80;99.90
76936;DHT22;65881;52.438;16.744;2024-03-25T07:48:32;4.80;99.90
76936;DHT22;65881;52.438;16.744;2024-03-25T07:50:57;4.80;99.90
76936;DHT22;65881;52.438;16.744;2024-03-25T07:53:23;4.70;99.90
76936;DHT22;65881;52.438;16.744;2024-03-25T07:55:48;4.70;99.90
76936;DHT22;65881;52.438;16.744;2024-03-25T07:58:14;4.70;99.90
76936;DHT22;65881;52.438;16.744;2024-03-25T08:00:39;4.70;99.90
76936;DHT22;65881;52.438;16.744;2024-03-25T08:03:08;4.70;99.90
76936;DHT22;65881;52.438;16.744;2024-03-25T08:05:34;4.70;99.90
76936;DHT22;65881;52.438;16.744;2024-03-25T08:07:59;4.70;99.90
76936;DHT22;65881;52.438;16.744;2024-03-25T08:10:25;4.80;99.90
76936;DHT22;65881;52.438;16.744;2024-03-25T08:12:50;4.90;99.90
76936;DHT22;65881;52.438;16.744;2024-03-25T08:15:16;4.90;99.90
76936;DHT22;65881;52.438;16.744;2024-03-25T08:17:42;5.00;99.90
76936;DHT22;65881;52.438;16.744;2024-03-25T08:20:08;5.00;99.90
76936;DHT22;65881;52.438;16.744;2024-03-25T08:22:33;5.00;99.90
76936;DHT22;65881;52.438;16.744;2024-03-25T08:24:59;5.10;99.90
76936;DHT22;65881;52.438;16.744;2024-03-25T08:27:25;5.10;99.90
76936;DHT22;65881;52.438;16.744;2024-03-25T08:29:50;5.30;99.90
76936;DHT22;65881;52.438;16.744;2024-03-25T08:32:18;5.30;99.90
76936;DHT22;65881;52.438;16.744;2024-03-25T08:34:44;5.40;99.90
76936;DHT22;65881;52.438;16.744;2024-03-25T08:37:10;5.50;99.90
76936;DHT22;65881;52.438;16.744;2024-03-25T08:39:36;5.50;99.90
76936;DHT22;65881;52.438;16.744;2024-03-25T08:42:02;5.40;99.90
76936;DHT22;65881;52.438;16.744;2024-03-25T08:44:29;5.30;99.90
76936;DHT22;65881;52.438;16.744;2024-03-25T08:46:54;5.40;99.90
76936;DHT22;65881;52.438;16.744;2024-03-25T08:49:20;5.30;99.90
76936;DHT22;65881;52.438;16.744;2024-03-25T08:51:45;5.30;99.90
76936;DHT22;65881;52.438;16.744;2024-03-25T08:54:11;5.30;99.90
76936;DHT22;65881;52.438;16.744;2024-03-25T08:56:36;5.30;99.90
76936;DHT22;65881;52.438;16.744;2024-03-25T08:59:02;5.20;99.90
76936;DHT22;65881;52.438;16.744;2024-03-25T09:01:31;5.20;99.90
76936;DHT22;65881;52.438;16.744;2024-03-25T09:03:57;5.30;99.90
76936;DHT22;65881;52.438;16.744;2024-03-25T09:06:22;5.30;99.90
76936;DHT22;65881;52.438;16.744;2024-03-25T09:08:48;5.30;99.90
76936;DHT22;65881;52.438;16.744;2024-03-25T09:11:32;5.30;99.90
76936;DHT22;65881;52.438;16.744;2024-03-25T09:13:58;5.20;99.90
76936;DHT22;65881;52.438;16.744;2024-03-25T09:16:23;5.10;99.90
76936;DHT22;65881;52.438;16.744;2024-03-25T09:18:49;5.00;99.90
76936;DHT22;65881;52.438;16.744;2024-03-25T09:21:14;5.00;99.90
76936;DHT22;65881;52.438;16.744;2024-03-25T09:23:40;5.00;99.90
76936;DHT22;65881;52.438;16.744;2024-03-25T09:26:05;5.00;99.90
76936;DHT22;65881;52.438;16.744;2024-03-25T09:28:31;5.00;99.90
76936;DHT22;65881;52.438;16.744;2024-03-25T09:30:56;5.00;99.90
76936;DHT22;65881;52.438;16.744;2024-03-25T09:33:22;5.20;99.90
76936;DHT22;65881;52.438;16.744;2024-03-25T09:35:47;5.40;99.90
76936;DHT22;65881;52.438;16.744;2024-03-25T09:38:13;5.50;99.90
76936;DHT22;65881;52.438;16.744;2024-03-25T09:40:41;5.60;99.90
76936;DHT22;65881;52.438;16.744;2024-03-25T09:43:16;5.70;99.90
76936;DHT22;65881;52.438;16.744;2024-03-25T09:45:47;5.70;99.90
76936;DHT22;65881;52.438;16.744;2024-03-25T09:48:15;5.70;99.90
76936;DHT22;65881;52.438;16.744;2024-03-25T09:50:42;5.70;99.90
76936;DHT22;65881;52.438;16.744;2024-03-25T09:53:09;5.80;99.90
76936;DHT22;65881;52.438;16.744;2024-03-25T09:55:34;5.80;99.90
76936;DHT22;65881;52.438;16.744;2024-03-25T09:58:00;6.00;99.90
76936;DHT22;65881;52.438;16.744;2024-03-25T10:00:26;6.30;99.90
76936;DHT22;65881;52.438;16.744;2024-03-25T10:02:51;6.50;99.90
76936;DHT22;65881;52.438;16.744;2024-03-25T10:05:17;6.80;99.90
76936;DHT22;65881;52.438;16.744;2024-03-25T10:07:43;7.00;99.90
76936;DHT22;65881;52.438;16.744;2024-03-25T10:10:08;7.20;99.90
76936;DHT22;65881;52.438;16.744;2024-03-25T10:12:36;7.40;99.90
76936;DHT22;65881;52.438;16.744;2024-03-25T10:15:02;7.20;99.90
76936;DHT22;65881;52.438;16.744;2024-03-25T10:17:29;7.20;99.90
76936;DHT22;65881;52.438;16.744;2024-03-25T10:19:55;7.20;99.90
76936;DHT22;65881;52.438;16.744;2024-03-25T10:22:20;7.50;99.90
76936;DHT22;65881;52.438;16.744;2024-03-25T10:24:47;7.80;99.90
76936;DHT22;65881;52.438;16.744;2024-03-25T10:27:21;7.80;99.90
76936;DHT22;65881;52.438;16.744;2024-03-25T10:29:47;8.30;99.90
76936;DHT22;65881;52.438;16.744;2024-03-25T10:32:13;8.50;99.90
76936;DHT22;65881;52.438;16.744;2024-03-25T10:34:39;8.60;99.90
76936;DHT22;65881;52.438;16.744;2024-03-25T10:37:11;8.50;99.90
76936;DHT22;65881;52.438;16.744;2024-03-25T10:39:46;8.80;99.90
76936;DHT22;65881;52.438;16.744;2024-03-25T10:42:15;8.60;99.90
76936;DHT22;65881;52.438;16.744;2024-03-25T10:44:43;9.10;99.90
76936;DHT22;65881;52.438;16.744;2024-03-25T10:47:12;9.00;99.90
76936;DHT22;65881;52.438;16.744;2024-03-25T10:49:49;8.90;99.90
76936;DHT22;65881;52.438;16.744;2024-03-25T10:52:16;8.60;99.90
76936;DHT22;65881;52.438;16.744;2024-03-25T10:54:43;8.30;99.90
76936;DHT22;65881;52.438;16.744;2024-03-25T10:57:11;7.60;99.90
76936;DHT22;65881;52.438;16.744;2024-03-25T10:59:38;7.20;99.90
76936;DHT22;65881;52.438;16.744;2024-03-25T11:02:09;7.20;99.90
76936;DHT22;65881;52.438;16.744;2024-03-25T11:04:36;7.30;99.90
76936;DHT22;65881;52.438;16.744;2024-03-25T11:07:15;7.40;99.90
76936;DHT22;65881;52.438;16.744;2024-03-25T11:09:41;7.50;99.90
76936;DHT22;65881;52.438;16.744;2024-03-25T11:12:09;7.50;99.90
76936;DHT22;65881;52.438;16.744;2024-03-25T11:14:36;7.60;99.90
76936;DHT22;65881;52.438;16.744;2024-03-25T11:17:02;7.60;99.90
76936;DHT22;65881;52.438;16.744;2024-03-25T11:19:29;7.60;99.90
76936;DHT22;65881;52.438;16.744;2024-03-25T11:22:07;7.40;99.90
76936;DHT22;65881;52.438;16.744;2024-03-25T11:24:33;7.40;99.90
76936;DHT22;65881;52.438;16.744;2024-03-25T11:27:02;7.70;99.90
76936;DHT22;65881;52.438;16.744;2024-03-25T11:29:29;7.80;99.90
76936;DHT22;65881;52.438;16.744;2024-03-25T11:31:55;8.00;99.90
76936;DHT22;65881;52.438;16.744;2024-03-25T11:34:23;8.00;99.90
76936;DHT22;65881;52.438;16.744;2024-03-25T11:36:49;8.40;99.90
76936;DHT22;65881;52.438;16.744;2024-03-25T11:39:14;8.60;99.90
76936;DHT22;65881;52.438;16.744;2024-03-25T11:41:44;8.80;99.90
76936;DHT22;65881;52.438;16.744;2024-03-25T11:44:11;8.90;99.90
76936;DHT22;65881;52.438;16.744;2024-03-25T11:46:40;8.90;99.90
76936;DHT22;65881;52.438;16.744;2024-03-25T11:49:17;8.70;99.90
76936;DHT22;65881;52.438;16.744;2024-03-25T11:51:43;8.60;99.90
76936;DHT22;65881;52.438;16.744;2024-03-25T11:54:29;8.60;99.90
76936;DHT22;65881;52.438;16.744;2024-03-25T11:56:55;8.60;99.90
76936;DHT22;65881;52.438;16.744;2024-03-25T11:59:21;8.30;99.90
76936;DHT22;65881;52.438;16.744;2024-03-25T12:01:49;8.10;99.90
76936;DHT22;65881;52.438;16.744;2024-03-25T12:04:17;8.00;99.90
76936;DHT22;65881;52.438;16.744;2024-03-25T12:06:43;8.00;99.90
76936;DHT22;65881;52.438;16.744;2024-03-25T12:09:10;8.00;99.90
76936;DHT22;65881;52.438;16.744;2024-03-25T12:11:54;8.10;99.90
76936;DHT22;65881;52.438;16.744;2024-03-25T12:14:24;8.10;99.90
76936;DHT22;65881;52.438;16.744;2024-03-25T12:16:53;8.20;99.90
76936;DHT22;65881;52.438;16.744;2024-03-25T12:19:19;8.30;99.90
76936;DHT22;65881;52.438;16.744;2024-03-25T12:21:45;8.40;99.90
76936;DHT22;65881;52.438;16.744;2024-03-25T12:24:13;8.40;99.90
76936;DHT22;65881;52.438;16.744;2024-03-25T12:26:40;8.40;99.90
76936;DHT22;65881;52.438;16.744;2024-03-25T12:29:06;8.60;99.90
76936;DHT22;65881;52.438;16.744;2024-03-25T12:31:36;8.90;99.90
76936;DHT22;65881;52.438;16.744;2024-03-25T12:34:09;9.50;99.90
76936;DHT22;65881;52.438;16.744;2024-03-25T12:36:35;9.70;99.90
76936;DHT22;65881;52.438;16.744;2024-03-25T12:39:01;9.90;99.90
76936;DHT22;65881;52.438;16.744;2024-03-25T12:41:27;9.70;99.90
76936;DHT22;65881;52.438;16.744;2024-03-25T12:43:56;9.70;99.90
76936;DHT22;65881;52.438;16.744;2024-03-25T12:46:24;9.40;99.90
76936;DHT22;65881;52.438;16.744;2024-03-25T12:48:50;9.30;99.90
76936;DHT22;65881;52.438;16.744;2024-03-25T12:51:17;9.00;99.90
76936;DHT22;65881;52.438;16.744;2024-03-25T12:53:43;8.90;99.90
76936;DHT22;65881;52.438;16.744;2024-03-25T12:56:08;8.90;99.90
76936;DHT22;65881;52.438;16.744;2024-03-25T12:58:38;8.90;99.90
76936;DHT22;65881;52.438;16.744;2024-03-25T13:01:06;8.80;99.90
76936;DHT22;65881;52.438;16.744;2024-03-25T13:03:31;8.60;99.90
76936;DHT22;65881;52.438;16.744;2024-03-25T13:05:58;8.60;99.90
76936;DHT22;65881;52.438;16.744;2024-03-25T13:08:25;8.50;99.90
76936;DHT22;65881;52.438;16.744;2024-03-25T13:10:50;8.60;99.90
76936;DHT22;65881;52.438;16.744;2024-03-25T13:13:19;8.70;99.90
76936;DHT22;65881;52.438;16.744;2024-03-25T13:16:07;8.90;99.90
76936;DHT22;65881;52.438;16.744;2024-03-25T13:18:54;8.90;99.90
76936;DHT22;65881;52.438;16.744;2024-03-25T13:21:20;9.00;99.90
76936;DHT22;65881;52.438;16.744;2024-03-25T13:23:46;9.20;99.90
76936;DHT22;65881;52.438;16.744;2024-03-25T13:26:19;9.50;99.90
76936;DHT22;65881;52.438;16.744;2024-03-25T13:31:11;9.60;99.90
76936;DHT22;65881;52.438;16.744;2024-03-25T13:33:38;9.50;99.90
76936;DHT22;65881;52.438;16.744;2024-03-25T13:36:05;9.40;99.90
76936;DHT22;65881;52.438;16.744;2024-03-25T13:38:34;9.40;99.90
76936;DHT22;65881;52.438;16.744;2024-03-25T13:41:01;9.20;99.90
76936;DHT22;65881;52.438;16.744;2024-03-25T13:43:27;9.00;99.90
76936;DHT22;65881;52.438;16.744;2024-03-25T13:45:52;9.00;99.90
76936;DHT22;65881;52.438;16.744;2024-03-25T13:48:19;9.00;99.90
76936;DHT22;65881;52.438;16.744;2024-03-25T13:50:45;9.00;99.90
76936;DHT22;65881;52.438;16.744;2024-03-25T13:53:11;8.90;99.90
76936;DHT22;65881;52.438;16.744;2024-03-25T13:55:39;8.90;99.90
76936;DHT22;65881;52.438;16.744;2024-03-25T13:58:07;8.80;99.90
76936;DHT22;65881;52.438;16.744;2024-03-25T14:00:44;8.90;99.90
76936;DHT22;65881;52.438;16.744;2024-03-25T14:03:09;9.20;99.90
76936;DHT22;65881;52.438;16.744;2024-03-25T14:05:35;9.20;99.90
76936;DHT22;65881;52.438;16.744;2024-03-25T14:08:04;9.40;99.90
76936;DHT22;65881;52.438;16.744;2024-03-25T14:10:30;9.40;99.90
76936;DHT22;65881;52.438;16.744;2024-03-25T14:12:56;9.20;99.90
76936;DHT22;65881;52.438;16.744;2024-03-25T14:15:22;9.10;99.90
76936;DHT22;65881;52.438;16.744;2024-03-25T14:17:47;9.00;99.90
76936;DHT22;65881;52.438;16.744;2024-03-25T14:20:13;9.00;99.90
76936;DHT22;65881;52.438;16.744;2024-03-25T14:22:43;9.30;99.90
76936;DHT22;65881;52.438;16.744;2024-03-25T14:25:08;9.30;99.90
76936;DHT22;65881;52.438;16.744;2024-03-25T14:27:34;9.30;99.90
76936;DHT22;65881;52.438;16.744;2024-03-25T14:30:05;9.30;99.90
76936;DHT22;65881;52.438;16.744;2024-03-25T14:32:36;9.20;99.90
76936;DHT22;65881;52.438;16.744;2024-03-25T14:35:07;9.20;99.90
76936;DHT22;65881;52.438;16.744;2024-03-25T14:37:33;9.20;99.90
76936;DHT22;65881;52.438;16.744;2024-03-25T14:40:00;9.00;99.90
76936;DHT22;65881;52.438;16.744;2024-03-25T14:42:28;9.10;99.90
76936;DHT22;65881;52.438;16.744;2024-03-25T14:44:58;9.00;99.90
76936;DHT22;65881;52.438;16.744;2024-03-25T14:47:24;8.60;99.90
76936;DHT22;65881;52.438;16.744;2024-03-25T14:49:51;8.50;99.90
76936;DHT22;65881;52.438;16.744;2024-03-25T14:52:16;8.50;99.90
76936;DHT22;65881;52.438;16.744;2024-03-25T14:54:44;8.40;99.90
76936;DHT22;65881;52.438;16.744;2024-03-25T14:57:09;8.40;99.90
76936;DHT22;65881;52.438;16.744;2024-03-25T14:59:38;8.30;99.90
76936;DHT22;65881;52.438;16.744;2024-03-25T15:02:04;8.40;99.90
76936;DHT22;65881;52.438;16.744;2024-03-25T15:04:29;8.50;99.90
76936;DHT22;65881;52.438;16.744;2024-03-25T15:06:56;8.50;99.90
76936;DHT22;65881;52.438;16.744;2024-03-25T15:09:22;8.40;99.90
76936;DHT22;65881;52.438;16.744;2024-03-25T15:11:51;8.30;99.90
76936;DHT22;65881;52.438;16.744;2024-03-25T15:14:17;8.10;99.90
76936;DHT22;65881;52.438;16.744;2024-03-25T15:16:43;7.80;99.90
76936;DHT22;65881;52.438;16.744;2024-03-25T15:19:09;7.50;99.90
76936;DHT22;65881;52.438;16.744;2024-03-25T15:21:34;7.30;99.90
76936;DHT22;65881;52.438;16.744;2024-03-25T15:24:10;7.20;99.90
76936;DHT22;65881;52.438;16.744;2024-03-25T15:26:41;7.10;99.90
76936;DHT22;65881;52.438;16.744;2024-03-25T15:29:08;7.10;99.90
76936;DHT22;65881;52.438;16.744;2024-03-25T15:31:34;7.10;99.90